sensor_id;sensor_type;location;lat;lon;timestamp;P1;durP1;ratioP1;P2;durP2;ratioP2
75386;SDS011;63966;47.914;22.266;2023-04-26T00:01:46;7.78;;;4.50;;
75386;SDS011;63966;47.914;22.266;2023-04-26T00:04:52;7.93;;;3.70;;
75386;SDS011;63966;47.914;22.266;2023-04-26T00:07:57;9.25;;;5.00;;
75386;SDS011;63966;47.914;22.266;2023-04-26T00:11:01;11.30;;;4.80;;
75386;SDS011;63966;47.914;22.266;2023-04-26T00:14:04;10.50;;;4.47;;
75386;SDS011;63966;47.914;22.266;2023-04-26T00:17:08;7.82;;;4.60;;
75386;SDS011;63966;47.914;22.266;2023-04-26T00:20:12;8.60;;;4.13;;
75386;SDS011;63966;47.914;22.266;2023-04-26T00:23:15;12.68;;;4.82;;
75386;SDS011;63966;47.914;22.266;2023-04-26T00:26:19;12.87;;;4.97;;
75386;SDS011;63966;47.914;22.266;2023-04-26T00:29:22;7.20;;;3.85;;
75386;SDS011;63966;47.914;22.266;2023-04-26T00:32:26;8.73;;;4.38;;
75386;SDS011;63966;47.914;22.266;2023-04-26T00:35:29;9.77;;;4.72;;
75386;SDS011;63966;47.914;22.266;2023-04-26T00:38:33;11.40;;;5.22;;
75386;SDS011;63966;47.914;22.266;2023-04-26T00:41:36;11.60;;;5.30;;
75386;SDS011;63966;47.914;22.266;2023-04-26T00:44:39;13.23;;;5.10;;
75386;SDS011;63966;47.914;22.266;2023-04-26T00:47:43;11.63;;;6.25;;
75386;SDS011;63966;47.914;22.266;2023-04-26T00:50:47;11.60;;;5.63;;
75386;SDS011;63966;47.914;22.266;2023-04-26T00:53:50;10.68;;;5.15;;
75386;SDS011;63966;47.914;22.266;2023-04-26T00:56:54;8.77;;;4.57;;
75386;SDS011;63966;47.914;22.266;2023-04-26T00:59:58;12.75;;;5.95;;
75386;SDS011;63966;47.914;22.266;2023-04-26T01:03:02;12.40;;;5.57;;
75386;SDS011;63966;47.914;22.266;2023-04-26T01:06:06;13.70;;;6.13;;
75386;SDS011;63966;47.914;22.266;2023-04-26T01:09:12;11.38;;;5.50;;
75386;SDS011;63966;47.914;22.266;2023-04-26T01:12:17;12.57;;;5.27;;
75386;SDS011;63966;47.914;22.266;2023-04-26T01:15:22;14.25;;;6.30;;
75386;SDS011;63966;47.914;22.266;2023-04-26T01:18:26;12.15;;;5.13;;
75386;SDS011;63966;47.914;22.266;2023-04-26T01:21:30;11.90;;;5.95;;
75386;SDS011;63966;47.914;22.266;2023-04-26T01:24:34;10.60;;;5.55;;
75386;SDS011;63966;47.914;22.266;2023-04-26T01:27:38;12.97;;;6.30;;
75386;SDS011;63966;47.914;22.266;2023-04-26T01:30:42;13.40;;;6.00;;
75386;SDS011;63966;47.914;22.266;2023-04-26T01:33:46;13.95;;;6.68;;
75386;SDS011;63966;47.914;22.266;2023-04-26T01:36:50;14.77;;;5.97;;
75386;SDS011;63966;47.914;22.266;2023-04-26T01:39:54;12.18;;;6.10;;
75386;SDS011;63966;47.914;22.266;2023-04-26T01:42:58;16.77;;;6.50;;
75386;SDS011;63966;47.914;22.266;2023-04-26T01:46:02;17.00;;;6.75;;
75386;SDS011;63966;47.914;22.266;2023-04-26T01:49:06;15.65;;;7.03;;
75386;SDS011;63966;47.914;22.266;2023-04-26T01:52:09;11.25;;;5.20;;
75386;SDS011;63966;47.914;22.266;2023-04-26T01:55:13;15.95;;;6.70;;
75386;SDS011;63966;47.914;22.266;2023-04-26T01:58:16;17.83;;;6.63;;
75386;SDS011;63966;47.914;22.266;2023-04-26T02:01:20;12.18;;;5.70;;
75386;SDS011;63966;47.914;22.266;2023-04-26T02:04:24;12.50;;;5.82;;
75386;SDS011;63966;47.914;22.266;2023-04-26T02:07:27;12.70;;;4.88;;
75386;SDS011;63966;47.914;22.266;2023-04-26T02:10:31;14.85;;;6.35;;
75386;SDS011;63966;47.914;22.266;2023-04-26T02:13:35;8.70;;;4.93;;
75386;SDS011;63966;47.914;22.266;2023-04-26T02:16:39;12.93;;;6.10;;
75386;SDS011;63966;47.914;22.266;2023-04-26T02:19:42;11.77;;;6.40;;
75386;SDS011;63966;47.914;22.266;2023-04-26T02:22:45;9.30;;;5.25;;
75386;SDS011;63966;47.914;22.266;2023-04-26T02:25:49;11.02;;;5.82;;
75386;SDS011;63966;47.914;22.266;2023-04-26T02:28:53;12.67;;;5.87;;
75386;SDS011;63966;47.914;22.266;2023-04-26T02:31:57;12.68;;;6.00;;
75386;SDS011;63966;47.914;22.266;2023-04-26T02:35:00;13.18;;;5.70;;
75386;SDS011;63966;47.914;22.266;2023-04-26T02:38:04;12.25;;;6.38;;
75386;SDS011;63966;47.914;22.266;2023-04-26T02:41:08;11.48;;;6.47;;
75386;SDS011;63966;47.914;22.266;2023-04-26T02:44:11;12.33;;;6.20;;
75386;SDS011;63966;47.914;22.266;2023-04-26T02:47:15;11.38;;;6.18;;
75386;SDS011;63966;47.914;22.266;2023-04-26T02:50:18;10.73;;;6.30;;
75386;SDS011;63966;47.914;22.266;2023-04-26T02:53:23;12.50;;;6.32;;
75386;SDS011;63966;47.914;22.266;2023-04-26T02:56:27;11.90;;;5.78;;
75386;SDS011;63966;47.914;22.266;2023-04-26T02:59:30;10.70;;;5.67;;
75386;SDS011;63966;47.914;22.266;2023-04-26T03:02:34;13.45;;;6.50;;
75386;SDS011;63966;47.914;22.266;2023-04-26T03:05:38;13.18;;;7.03;;
75386;SDS011;63966;47.914;22.266;2023-04-26T03:08:41;11.77;;;6.82;;
75386;SDS011;63966;47.914;22.266;2023-04-26T03:11:45;10.70;;;6.47;;
75386;SDS011;63966;47.914;22.266;2023-04-26T03:14:51;15.97;;;6.57;;
75386;SDS011;63966;47.914;22.266;2023-04-26T03:17:54;16.80;;;6.88;;
75386;SDS011;63966;47.914;22.266;2023-04-26T03:20:59;12.63;;;7.40;;
75386;SDS011;63966;47.914;22.266;2023-04-26T03:24:04;13.25;;;6.78;;
75386;SDS011;63966;47.914;22.266;2023-04-26T03:27:08;12.55;;;6.78;;
75386;SDS011;63966;47.914;22.266;2023-04-26T03:30:13;12.20;;;6.40;;
75386;SDS011;63966;47.914;22.266;2023-04-26T03:33:18;13.57;;;7.53;;
75386;SDS011;63966;47.914;22.266;2023-04-26T03:36:22;13.25;;;6.78;;
75386;SDS011;63966;47.914;22.266;2023-04-26T03:39:26;14.52;;;8.02;;
75386;SDS011;63966;47.914;22.266;2023-04-26T03:42:29;15.07;;;7.85;;
75386;SDS011;63966;47.914;22.266;2023-04-26T03:45:33;14.10;;;7.80;;
75386;SDS011;63966;47.914;22.266;2023-04-26T03:48:38;12.77;;;6.18;;
75386;SDS011;63966;47.914;22.266;2023-04-26T03:51:42;13.20;;;7.47;;
75386;SDS011;63966;47.914;22.266;2023-04-26T03:54:45;13.63;;;7.03;;
75386;SDS011;63966;47.914;22.266;2023-04-26T03:57:49;12.32;;;6.95;;
75386;SDS011;63966;47.914;22.266;2023-04-26T04:00:55;11.57;;;6.70;;
75386;SDS011;63966;47.914;22.266;2023-04-26T04:04:00;12.48;;;6.85;;
75386;SDS011;63966;47.914;22.266;2023-04-26T04:07:04;11.93;;;6.55;;
75386;SDS011;63966;47.914;22.266;2023-04-26T04:10:08;13.07;;;6.35;;
75386;SDS011;63966;47.914;22.266;2023-04-26T04:13:13;13.40;;;6.95;;
75386;SDS011;63966;47.914;22.266;2023-04-26T04:16:17;13.43;;;7.33;;
75386;SDS011;63966;47.914;22.266;2023-04-26T04:19:20;12.93;;;6.07;;
75386;SDS011;63966;47.914;22.266;2023-04-26T04:22:24;11.18;;;6.55;;
75386;SDS011;63966;47.914;22.266;2023-04-26T04:25:27;12.05;;;6.10;;
75386;SDS011;63966;47.914;22.266;2023-04-26T04:28:35;12.02;;;7.00;;
75386;SDS011;63966;47.914;22.266;2023-04-26T04:31:39;14.00;;;6.30;;
75386;SDS011;63966;47.914;22.266;2023-04-26T04:34:44;13.30;;;6.72;;
75386;SDS011;63966;47.914;22.266;2023-04-26T04:37:50;14.10;;;7.60;;
75386;SDS011;63966;47.914;22.266;2023-04-26T04:40:54;12.73;;;6.53;;
75386;SDS011;63966;47.914;22.266;2023-04-26T04:43:58;10.10;;;5.72;;
75386;SDS011;63966;47.914;22.266;2023-04-26T04:47:03;14.07;;;6.27;;
75386;SDS011;63966;47.914;22.266;2023-04-26T04:50:07;12.25;;;6.65;;
75386;SDS011;63966;47.914;22.266;2023-04-26T04:53:11;14.30;;;7.28;;
75386;SDS011;63966;47.914;22.266;2023-04-26T04:56:15;12.38;;;6.63;;
75386;SDS011;63966;47.914;22.266;2023-04-26T04:59:20;11.05;;;7.00;;
75386;SDS011;63966;47.914;22.266;2023-04-26T05:02:23;13.87;;;6.53;;
75386;SDS011;63966;47.914;22.266;2023-04-26T05:05:27;12.02;;;6.68;;
75386;SDS011;63966;47.914;22.266;2023-04-26T05:08:31;13.70;;;6.60;;
75386;SDS011;63966;47.914;22.266;2023-04-26T05:11:37;13.05;;;6.47;;
75386;SDS011;63966;47.914;22.266;2023-04-26T05:14:42;13.68;;;6.07;;
75386;SDS011;63966;47.914;22.266;2023-04-26T05:17:46;11.97;;;5.87;;
75386;SDS011;63966;47.914;22.266;2023-04-26T05:20:56;11.85;;;6.50;;
75386;SDS011;63966;47.914;22.266;2023-04-26T05:24:01;11.75;;;6.30;;
75386;SDS011;63966;47.914;22.266;2023-04-26T05:27:05;12.60;;;6.20;;
75386;SDS011;63966;47.914;22.266;2023-04-26T05:30:18;13.50;;;6.35;;
75386;SDS011;63966;47.914;22.266;2023-04-26T05:34:05;9.30;;;5.17;;
75386;SDS011;63966;47.914;22.266;2023-04-26T05:37:13;10.75;;;5.22;;
75386;SDS011;63966;47.914;22.266;2023-04-26T05:40:18;5.53;;;3.13;;
75386;SDS011;63966;47.914;22.266;2023-04-26T05:43:21;11.05;;;4.85;;
75386;SDS011;63966;47.914;22.266;2023-04-26T05:46:25;10.48;;;5.55;;
75386;SDS011;63966;47.914;22.266;2023-04-26T05:49:29;13.00;;;5.90;;
75386;SDS011;63966;47.914;22.266;2023-04-26T05:52:34;13.73;;;5.38;;
75386;SDS011;63966;47.914;22.266;2023-04-26T05:55:42;9.88;;;5.38;;
75386;SDS011;63966;47.914;22.266;2023-04-26T05:58:46;9.38;;;4.90;;
75386;SDS011;63966;47.914;22.266;2023-04-26T06:01:51;11.05;;;4.82;;
75386;SDS011;63966;47.914;22.266;2023-04-26T06:04:54;8.30;;;4.33;;
75386;SDS011;63966;47.914;22.266;2023-04-26T06:08:00;13.45;;;4.60;;
75386;SDS011;63966;47.914;22.266;2023-04-26T06:11:03;8.38;;;4.20;;
75386;SDS011;63966;47.914;22.266;2023-04-26T06:14:06;10.10;;;4.20;;
75386;SDS011;63966;47.914;22.266;2023-04-26T06:17:31;8.75;;;4.10;;
75386;SDS011;63966;47.914;22.266;2023-04-26T06:20:35;10.90;;;4.40;;
75386;SDS011;63966;47.914;22.266;2023-04-26T06:23:47;10.77;;;4.70;;
75386;SDS011;63966;47.914;22.266;2023-04-26T06:26:53;9.03;;;4.10;;
75386;SDS011;63966;47.914;22.266;2023-04-26T06:29:56;8.18;;;3.70;;
75386;SDS011;63966;47.914;22.266;2023-04-26T06:33:01;9.43;;;4.43;;
75386;SDS011;63966;47.914;22.266;2023-04-26T06:36:09;12.85;;;4.32;;
75386;SDS011;63966;47.914;22.266;2023-04-26T06:39:15;10.27;;;4.23;;
75386;SDS011;63966;47.914;22.266;2023-04-26T06:42:19;9.20;;;4.10;;
75386;SDS011;63966;47.914;22.266;2023-04-26T06:45:39;10.70;;;4.50;;
75386;SDS011;63966;47.914;22.266;2023-04-26T06:48:46;10.35;;;5.05;;
75386;SDS011;63966;47.914;22.266;2023-04-26T06:51:49;9.00;;;4.05;;
75386;SDS011;63966;47.914;22.266;2023-04-26T06:54:54;11.23;;;4.63;;
75386;SDS011;63966;47.914;22.266;2023-04-26T06:57:59;9.80;;;4.63;;
75386;SDS011;63966;47.914;22.266;2023-04-26T07:01:03;9.23;;;4.68;;
75386;SDS011;63966;47.914;22.266;2023-04-26T07:04:11;9.75;;;4.85;;
75386;SDS011;63966;47.914;22.266;2023-04-26T07:07:16;9.93;;;4.45;;
75386;SDS011;63966;47.914;22.266;2023-04-26T07:10:21;9.43;;;4.63;;
75386;SDS011;63966;47.914;22.266;2023-04-26T07:13:24;8.07;;;4.37;;
75386;SDS011;63966;47.914;22.266;2023-04-26T07:16:31;10.20;;;4.15;;
75386;SDS011;63966;47.914;22.266;2023-04-26T07:19:35;11.80;;;4.35;;
75386;SDS011;63966;47.914;22.266;2023-04-26T07:22:40;12.32;;;4.10;;
75386;SDS011;63966;47.914;22.266;2023-04-26T07:25:43;9.10;;;4.20;;
75386;SDS011;63966;47.914;22.266;2023-04-26T07:28:47;9.83;;;3.67;;
75386;SDS011;63966;47.914;22.266;2023-04-26T07:31:52;13.13;;;4.72;;
75386;SDS011;63966;47.914;22.266;2023-04-26T07:34:55;10.70;;;4.70;;
75386;SDS011;63966;47.914;22.266;2023-04-26T07:37:59;7.82;;;3.80;;
75386;SDS011;63966;47.914;22.266;2023-04-26T07:41:02;10.27;;;3.70;;
75386;SDS011;63966;47.914;22.266;2023-04-26T07:44:06;10.57;;;3.80;;
75386;SDS011;63966;47.914;22.266;2023-04-26T07:47:10;9.35;;;4.00;;
75386;SDS011;63966;47.914;22.266;2023-04-26T07:50:15;10.18;;;3.90;;
75386;SDS011;63966;47.914;22.266;2023-04-26T07:53:19;6.65;;;3.20;;
75386;SDS011;63966;47.914;22.266;2023-04-26T07:56:23;8.17;;;3.27;;
75386;SDS011;63966;47.914;22.266;2023-04-26T07:59:26;7.27;;;3.27;;
75386;SDS011;63966;47.914;22.266;2023-04-26T08:02:30;7.28;;;3.28;;
75386;SDS011;63966;47.914;22.266;2023-04-26T08:05:46;7.10;;;3.05;;
75386;SDS011;63966;47.914;22.266;2023-04-26T08:08:50;7.75;;;3.08;;
75386;SDS011;63966;47.914;22.266;2023-04-26T08:11:55;9.77;;;3.67;;
75386;SDS011;63966;47.914;22.266;2023-04-26T08:14:59;9.93;;;4.63;;
75386;SDS011;63966;47.914;22.266;2023-04-26T08:18:03;7.10;;;3.75;;
75386;SDS011;63966;47.914;22.266;2023-04-26T08:21:07;10.10;;;4.10;;
75386;SDS011;63966;47.914;22.266;2023-04-26T08:24:11;9.15;;;3.53;;
75386;SDS011;63966;47.914;22.266;2023-04-26T08:27:15;7.83;;;3.17;;
75386;SDS011;63966;47.914;22.266;2023-04-26T08:30:20;6.27;;;2.93;;
75386;SDS011;63966;47.914;22.266;2023-04-26T08:33:31;6.32;;;3.05;;
75386;SDS011;63966;47.914;22.266;2023-04-26T08:36:44;9.85;;;3.15;;
75386;SDS011;63966;47.914;22.266;2023-04-26T08:39:51;6.70;;;3.10;;
75386;SDS011;63966;47.914;22.266;2023-04-26T08:42:55;8.27;;;2.37;;
75386;SDS011;63966;47.914;22.266;2023-04-26T08:45:58;7.03;;;2.20;;
75386;SDS011;63966;47.914;22.266;2023-04-26T08:52:52;9.70;;;2.70;;
75386;SDS011;63966;47.914;22.266;2023-04-26T08:55:57;7.07;;;2.17;;
75386;SDS011;63966;47.914;22.266;2023-04-26T08:59:02;7.10;;;2.50;;
75386;SDS011;63966;47.914;22.266;2023-04-26T09:02:06;7.43;;;2.90;;
75386;SDS011;63966;47.914;22.266;2023-04-26T09:05:14;6.07;;;2.13;;
75386;SDS011;63966;47.914;22.266;2023-04-26T09:08:18;7.40;;;2.47;;
75386;SDS011;63966;47.914;22.266;2023-04-26T09:11:23;7.22;;;2.75;;
75386;SDS011;63966;47.914;22.266;2023-04-26T09:14:26;7.27;;;2.43;;
75386;SDS011;63966;47.914;22.266;2023-04-26T09:17:31;7.90;;;2.20;;
75386;SDS011;63966;47.914;22.266;2023-04-26T09:20:39;6.82;;;2.30;;
75386;SDS011;63966;47.914;22.266;2023-04-26T09:23:56;6.40;;;2.60;;
75386;SDS011;63966;47.914;22.266;2023-04-26T09:27:00;7.00;;;1.90;;
75386;SDS011;63966;47.914;22.266;2023-04-26T09:30:16;8.53;;;2.07;;
75386;SDS011;63966;47.914;22.266;2023-04-26T09:33:22;9.30;;;2.20;;
75386;SDS011;63966;47.914;22.266;2023-04-26T09:36:26;8.18;;;2.17;;
75386;SDS011;63966;47.914;22.266;2023-04-26T09:39:35;7.50;;;2.17;;
75386;SDS011;63966;47.914;22.266;2023-04-26T09:42:41;7.68;;;2.20;;
75386;SDS011;63966;47.914;22.266;2023-04-26T09:45:51;5.07;;;2.03;;
75386;SDS011;63966;47.914;22.266;2023-04-26T09:49:00;6.17;;;2.00;;
75386;SDS011;63966;47.914;22.266;2023-04-26T09:52:05;5.80;;;2.00;;
75386;SDS011;63966;47.914;22.266;2023-04-26T09:55:08;7.50;;;2.03;;
75386;SDS011;63966;47.914;22.266;2023-04-26T09:58:33;4.88;;;1.92;;
75386;SDS011;63966;47.914;22.266;2023-04-26T10:01:41;5.93;;;1.80;;
75386;SDS011;63966;47.914;22.266;2023-04-26T10:04:46;6.00;;;1.80;;
75386;SDS011;63966;47.914;22.266;2023-04-26T10:07:51;5.47;;;1.77;;
75386;SDS011;63966;47.914;22.266;2023-04-26T10:10:56;8.00;;;1.88;;
75386;SDS011;63966;47.914;22.266;2023-04-26T10:14:01;6.88;;;1.80;;
75386;SDS011;63966;47.914;22.266;2023-04-26T10:17:05;6.17;;;1.90;;
75386;SDS011;63966;47.914;22.266;2023-04-26T10:20:11;6.50;;;2.00;;
75386;SDS011;63966;47.914;22.266;2023-04-26T10:23:20;5.72;;;1.83;;
75386;SDS011;63966;47.914;22.266;2023-04-26T10:39:18;7.22;;;2.00;;
75386;SDS011;63966;47.914;22.266;2023-04-26T10:42:27;5.95;;;1.90;;
75386;SDS011;63966;47.914;22.266;2023-04-26T10:45:34;4.68;;;1.80;;
75386;SDS011;63966;47.914;22.266;2023-04-26T10:48:39;6.20;;;2.00;;
75386;SDS011;63966;47.914;22.266;2023-04-26T10:52:07;3.47;;;1.50;;
75386;SDS011;63966;47.914;22.266;2023-04-26T10:55:12;6.38;;;1.67;;
75386;SDS011;63966;47.914;22.266;2023-04-26T10:58:46;5.32;;;1.60;;
75386;SDS011;63966;47.914;22.266;2023-04-26T11:01:52;5.80;;;1.60;;
75386;SDS011;63966;47.914;22.266;2023-04-26T11:04:56;7.47;;;2.10;;
75386;SDS011;63966;47.914;22.266;2023-04-26T11:11:18;4.82;;;1.67;;
75386;SDS011;63966;47.914;22.266;2023-04-26T11:14:28;6.03;;;2.03;;
75386;SDS011;63966;47.914;22.266;2023-04-26T11:17:41;6.63;;;1.83;;
75386;SDS011;63966;47.914;22.266;2023-04-26T11:20:45;5.20;;;1.60;;
75386;SDS011;63966;47.914;22.266;2023-04-26T11:23:53;7.17;;;2.03;;
75386;SDS011;63966;47.914;22.266;2023-04-26T11:26:57;5.95;;;2.10;;
75386;SDS011;63966;47.914;22.266;2023-04-26T11:30:02;6.25;;;1.90;;
75386;SDS011;63966;47.914;22.266;2023-04-26T11:33:07;7.60;;;1.80;;
75386;SDS011;63966;47.914;22.266;2023-04-26T11:36:24;7.63;;;2.20;;
75386;SDS011;63966;47.914;22.266;2023-04-26T11:39:32;6.57;;;1.93;;
75386;SDS011;63966;47.914;22.266;2023-04-26T11:42:37;4.00;;;1.70;;
75386;SDS011;63966;47.914;22.266;2023-04-26T11:45:41;5.03;;;1.73;;
75386;SDS011;63966;47.914;22.266;2023-04-26T11:48:45;6.47;;;1.67;;
75386;SDS011;63966;47.914;22.266;2023-04-26T11:51:50;5.30;;;1.50;;
75386;SDS011;63966;47.914;22.266;2023-04-26T11:55:05;4.90;;;1.60;;
75386;SDS011;63966;47.914;22.266;2023-04-26T11:58:11;7.65;;;1.85;;
75386;SDS011;63966;47.914;22.266;2023-04-26T12:01:34;7.70;;;2.00;;
75386;SDS011;63966;47.914;22.266;2023-04-26T12:04:38;7.40;;;1.75;;
75386;SDS011;63966;47.914;22.266;2023-04-26T12:07:43;6.27;;;2.20;;
75386;SDS011;63966;47.914;22.266;2023-04-26T12:10:57;7.90;;;1.80;;
75386;SDS011;63966;47.914;22.266;2023-04-26T12:14:04;7.30;;;1.85;;
75386;SDS011;63966;47.914;22.266;2023-04-26T12:17:09;4.85;;;1.70;;
75386;SDS011;63966;47.914;22.266;2023-04-26T12:20:16;3.63;;;1.33;;
75386;SDS011;63966;47.914;22.266;2023-04-26T12:23:21;7.13;;;2.03;;
75386;SDS011;63966;47.914;22.266;2023-04-26T12:26:41;4.70;;;1.70;;
75386;SDS011;63966;47.914;22.266;2023-04-26T12:29:46;9.07;;;2.70;;
75386;SDS011;63966;47.914;22.266;2023-04-26T12:32:50;9.32;;;1.70;;
75386;SDS011;63966;47.914;22.266;2023-04-26T12:36:08;6.95;;;1.80;;
75386;SDS011;63966;47.914;22.266;2023-04-26T12:39:13;7.07;;;1.83;;
75386;SDS011;63966;47.914;22.266;2023-04-26T12:42:18;5.17;;;1.67;;
75386;SDS011;63966;47.914;22.266;2023-04-26T12:45:23;5.15;;;1.70;;
75386;SDS011;63966;47.914;22.266;2023-04-26T12:48:29;3.63;;;1.65;;
75386;SDS011;63966;47.914;22.266;2023-04-26T12:51:33;5.75;;;1.50;;
75386;SDS011;63966;47.914;22.266;2023-04-26T12:54:37;4.47;;;1.50;;
75386;SDS011;63966;47.914;22.266;2023-04-26T12:57:42;5.93;;;1.57;;
75386;SDS011;63966;47.914;22.266;2023-04-26T13:00:55;3.60;;;1.45;;
75386;SDS011;63966;47.914;22.266;2023-04-26T13:04:00;5.10;;;1.58;;
75386;SDS011;63966;47.914;22.266;2023-04-26T13:07:07;5.70;;;1.85;;
75386;SDS011;63966;47.914;22.266;2023-04-26T13:10:12;12.40;;;4.10;;
75386;SDS011;63966;47.914;22.266;2023-04-26T13:13:16;5.90;;;2.00;;
75386;SDS011;63966;47.914;22.266;2023-04-26T13:16:27;7.63;;;2.40;;
75386;SDS011;63966;47.914;22.266;2023-04-26T13:19:34;5.75;;;2.15;;
75386;SDS011;63966;47.914;22.266;2023-04-26T13:22:38;3.38;;;1.65;;
75386;SDS011;63966;47.914;22.266;2023-04-26T13:25:44;5.97;;;1.73;;
75386;SDS011;63966;47.914;22.266;2023-04-26T13:28:49;4.73;;;1.47;;
75386;SDS011;63966;47.914;22.266;2023-04-26T13:31:53;4.78;;;1.75;;
75386;SDS011;63966;47.914;22.266;2023-04-26T13:34:59;5.55;;;1.77;;
75386;SDS011;63966;47.914;22.266;2023-04-26T13:38:04;5.82;;;1.48;;
75386;SDS011;63966;47.914;22.266;2023-04-26T13:41:09;4.47;;;1.50;;
75386;SDS011;63966;47.914;22.266;2023-04-26T13:44:13;4.20;;;1.50;;
75386;SDS011;63966;47.914;22.266;2023-04-26T13:47:18;4.43;;;1.38;;
75386;SDS011;63966;47.914;22.266;2023-04-26T13:50:22;8.10;;;1.90;;
75386;SDS011;63966;47.914;22.266;2023-04-26T13:53:26;5.47;;;1.63;;
75386;SDS011;63966;47.914;22.266;2023-04-26T13:56:31;5.73;;;1.83;;
75386;SDS011;63966;47.914;22.266;2023-04-26T13:59:35;3.17;;;1.57;;
75386;SDS011;63966;47.914;22.266;2023-04-26T14:02:39;6.57;;;1.70;;
75386;SDS011;63966;47.914;22.266;2023-04-26T14:05:44;4.25;;;1.40;;
75386;SDS011;63966;47.914;22.266;2023-04-26T14:08:48;6.88;;;1.80;;
75386;SDS011;63966;47.914;22.266;2023-04-26T14:11:53;2.73;;;1.37;;
75386;SDS011;63966;47.914;22.266;2023-04-26T14:15:10;3.40;;;1.23;;
75386;SDS011;63966;47.914;22.266;2023-04-26T14:18:15;5.03;;;1.33;;
75386;SDS011;63966;47.914;22.266;2023-04-26T14:21:20;5.00;;;1.70;;
75386;SDS011;63966;47.914;22.266;2023-04-26T14:24:24;5.32;;;1.58;;
75386;SDS011;63966;47.914;22.266;2023-04-26T14:27:28;3.90;;;1.50;;
75386;SDS011;63966;47.914;22.266;2023-04-26T14:30:34;4.53;;;1.40;;
75386;SDS011;63966;47.914;22.266;2023-04-26T14:33:38;3.47;;;1.40;;
75386;SDS011;63966;47.914;22.266;2023-04-26T14:36:43;3.15;;;1.45;;
75386;SDS011;63966;47.914;22.266;2023-04-26T14:39:48;5.82;;;1.70;;
75386;SDS011;63966;47.914;22.266;2023-04-26T14:42:52;4.57;;;1.50;;
75386;SDS011;63966;47.914;22.266;2023-04-26T14:45:56;6.67;;;1.50;;
75386;SDS011;63966;47.914;22.266;2023-04-26T14:49:00;4.32;;;1.40;;
75386;SDS011;63966;47.914;22.266;2023-04-26T14:52:05;6.95;;;1.73;;
75386;SDS011;63966;47.914;22.266;2023-04-26T14:55:09;3.85;;;1.70;;
75386;SDS011;63966;47.914;22.266;2023-04-26T14:58:13;7.70;;;1.90;;
75386;SDS011;63966;47.914;22.266;2023-04-26T15:01:20;5.43;;;1.60;;
75386;SDS011;63966;47.914;22.266;2023-04-26T15:04:24;4.72;;;1.50;;
75386;SDS011;63966;47.914;22.266;2023-04-26T15:07:28;5.15;;;1.58;;
75386;SDS011;63966;47.914;22.266;2023-04-26T15:10:35;4.80;;;1.40;;
75386;SDS011;63966;47.914;22.266;2023-04-26T15:13:39;5.23;;;1.77;;
75386;SDS011;63966;47.914;22.266;2023-04-26T15:16:44;4.10;;;1.50;;
75386;SDS011;63966;47.914;22.266;2023-04-26T15:19:48;5.70;;;1.70;;
75386;SDS011;63966;47.914;22.266;2023-04-26T15:22:52;7.80;;;2.03;;
75386;SDS011;63966;47.914;22.266;2023-04-26T15:26:00;6.78;;;1.83;;
75386;SDS011;63966;47.914;22.266;2023-04-26T15:29:04;4.77;;;1.60;;
75386;SDS011;63966;47.914;22.266;2023-04-26T15:32:09;10.40;;;2.37;;
75386;SDS011;63966;47.914;22.266;2023-04-26T15:35:13;7.13;;;1.88;;
75386;SDS011;63966;47.914;22.266;2023-04-26T15:38:18;4.50;;;1.60;;
75386;SDS011;63966;47.914;22.266;2023-04-26T15:41:22;13.35;;;5.65;;
75386;SDS011;63966;47.914;22.266;2023-04-26T15:44:26;4.97;;;1.97;;
75386;SDS011;63966;47.914;22.266;2023-04-26T15:47:30;6.17;;;1.87;;
75386;SDS011;63966;47.914;22.266;2023-04-26T15:50:38;6.85;;;2.45;;
75386;SDS011;63966;47.914;22.266;2023-04-26T15:53:42;5.78;;;1.52;;
75386;SDS011;63966;47.914;22.266;2023-04-26T15:56:46;5.68;;;1.60;;
75386;SDS011;63966;47.914;22.266;2023-04-26T15:59:51;6.30;;;1.70;;
75386;SDS011;63966;47.914;22.266;2023-04-26T16:02:55;6.20;;;1.80;;
75386;SDS011;63966;47.914;22.266;2023-04-26T16:05:59;3.95;;;1.60;;
75386;SDS011;63966;47.914;22.266;2023-04-26T16:09:03;5.78;;;1.67;;
75386;SDS011;63966;47.914;22.266;2023-04-26T16:12:26;4.30;;;1.45;;
75386;SDS011;63966;47.914;22.266;2023-04-26T16:15:30;4.63;;;1.50;;
75386;SDS011;63966;47.914;22.266;2023-04-26T16:18:34;3.93;;;1.70;;
75386;SDS011;63966;47.914;22.266;2023-04-26T16:21:41;5.97;;;1.58;;
75386;SDS011;63966;47.914;22.266;2023-04-26T16:24:46;5.20;;;1.35;;
75386;SDS011;63966;47.914;22.266;2023-04-26T16:27:50;6.25;;;1.63;;
75386;SDS011;63966;47.914;22.266;2023-04-26T16:30:54;7.07;;;1.40;;
75386;SDS011;63966;47.914;22.266;2023-04-26T16:33:59;8.03;;;3.07;;
75386;SDS011;63966;47.914;22.266;2023-04-26T16:37:03;6.57;;;2.65;;
75386;SDS011;63966;47.914;22.266;2023-04-26T16:40:07;6.68;;;2.08;;
75386;SDS011;63966;47.914;22.266;2023-04-26T16:43:13;5.35;;;2.20;;
75386;SDS011;63966;47.914;22.266;2023-04-26T16:46:17;6.70;;;1.90;;
75386;SDS011;63966;47.914;22.266;2023-04-26T16:49:21;8.87;;;1.87;;
75386;SDS011;63966;47.914;22.266;2023-04-26T16:52:25;7.78;;;2.63;;
75386;SDS011;63966;47.914;22.266;2023-04-26T16:55:29;7.15;;;2.30;;
75386;SDS011;63966;47.914;22.266;2023-04-26T16:58:34;8.55;;;3.50;;
75386;SDS011;63966;47.914;22.266;2023-04-26T17:01:38;10.37;;;3.30;;
75386;SDS011;63966;47.914;22.266;2023-04-26T17:04:42;7.80;;;2.60;;
75386;SDS011;63966;47.914;22.266;2023-04-26T17:07:47;6.03;;;2.70;;
75386;SDS011;63966;47.914;22.266;2023-04-26T17:10:51;12.52;;;4.63;;
75386;SDS011;63966;47.914;22.266;2023-04-26T17:13:55;7.85;;;2.47;;
75386;SDS011;63966;47.914;22.266;2023-04-26T17:17:00;4.83;;;2.13;;
75386;SDS011;63966;47.914;22.266;2023-04-26T17:20:04;6.40;;;2.00;;
75386;SDS011;63966;47.914;22.266;2023-04-26T17:23:13;4.57;;;1.88;;
75386;SDS011;63966;47.914;22.266;2023-04-26T17:26:17;5.80;;;2.00;;
75386;SDS011;63966;47.914;22.266;2023-04-26T17:29:24;4.05;;;1.58;;
75386;SDS011;63966;47.914;22.266;2023-04-26T17:32:28;6.57;;;2.10;;
75386;SDS011;63966;47.914;22.266;2023-04-26T17:35:32;6.97;;;2.20;;
75386;SDS011;63966;47.914;22.266;2023-04-26T17:38:37;5.95;;;1.83;;
75386;SDS011;63966;47.914;22.266;2023-04-26T17:41:41;6.80;;;2.08;;
75386;SDS011;63966;47.914;22.266;2023-04-26T17:44:45;6.65;;;1.83;;
75386;SDS011;63966;47.914;22.266;2023-04-26T17:47:49;3.97;;;1.30;;
75386;SDS011;63966;47.914;22.266;2023-04-26T17:50:53;6.97;;;1.80;;
75386;SDS011;63966;47.914;22.266;2023-04-26T17:53:58;5.32;;;2.10;;
75386;SDS011;63966;47.914;22.266;2023-04-26T17:57:02;5.93;;;2.40;;
75386;SDS011;63966;47.914;22.266;2023-04-26T18:00:06;6.97;;;1.88;;
75386;SDS011;63966;47.914;22.266;2023-04-26T18:03:18;5.30;;;1.73;;
75386;SDS011;63966;47.914;22.266;2023-04-26T18:06:23;6.63;;;2.20;;
75386;SDS011;63966;47.914;22.266;2023-04-26T18:09:27;5.13;;;1.77;;
75386;SDS011;63966;47.914;22.266;2023-04-26T18:12:31;5.07;;;1.80;;
75386;SDS011;63966;47.914;22.266;2023-04-26T18:15:36;3.53;;;1.67;;
75386;SDS011;63966;47.914;22.266;2023-04-26T18:18:40;6.70;;;2.20;;
75386;SDS011;63966;47.914;22.266;2023-04-26T18:21:46;8.97;;;2.67;;
75386;SDS011;63966;47.914;22.266;2023-04-26T18:24:53;9.02;;;3.20;;
75386;SDS011;63966;47.914;22.266;2023-04-26T18:27:57;7.95;;;2.45;;
75386;SDS011;63966;47.914;22.266;2023-04-26T18:31:01;7.32;;;2.58;;
75386;SDS011;63966;47.914;22.266;2023-04-26T18:34:05;6.03;;;2.47;;
75386;SDS011;63966;47.914;22.266;2023-04-26T18:37:09;8.63;;;2.20;;